« 定点 富山空港 2014/2/12 wed | トップページ | 冬の陣 富山県広域消防防災センター 2014/2/16 sun »

2014/02/16

おnew 富山空港 2014/2/16 sun

今日の出撃は、富山空港近隣の某所ですが、合間にいつもの場所で・・・ と、思ったら昨日から路線投入されたJA825Aが、早速富山にやって来た。

RJNT 160100Z 32011KT 9999 SCT025 04/M03 Q1024

20140216_rjnt_00ja825a

20140216_rjnt_01ja825a

20140216_rjnt_02ja825a

20140216_rjnt_03ja825a

ANA883 RJTT-RJNT JA825A B787-881

### whitewing681 さんの動画 ###

###

20140216_rjnt_04hl7722

20140216_rjnt_05hl7722

20140216_rjnt_06hl7722

AAR128 RKSI-RJNT HL7722 A321-231

20140216_rjnt_07b6042

20140216_rjnt_08b6042

CSN613A ZYTL-RJNT B-6042 A319-132

20140216_rjnt_09b6042

昨日欠航となった南方がディレイ便として、本日飛来。普段見れない並びとなった。

20140216_rjnt_10ja825a_2

ピッカピカ!

20140216_rjnt_11ja825a

20140216_rjnt_12ja825a

ANA886 RJNT-RJTT JA825A B787-881

RJNT 160300Z 36009KT 330V030 9999 FEW030 06/M04 Q1024

20140216_rjnt_13hl7722

20140216_rjnt_14hl7722

AAR127 RJNT-RKSI HL7722 A321-231

20140216_rjnt_15b6042

20140216_rjnt_16b6042

CSN614A RJNT-ZYTL B-6042 A319-132

RJNT 160500Z 01007KT 9999 FEW035 06/M04 Q1025

20140216_bousai_17ja812a

本日の出撃地からサークリングでアプローチするドリームを

20140216_bousai_18ja812a

ANA885 RJTT-RJNT JA812A B787-881

キャー、かすみ網やん

20140216_rjnt_19ja300k

ADO121 RJNT-RJCC JA300K B737-54K

20140216_rjnt_20ja812a

20140216_rjnt_21ja812a

ANA888 RJNT-RJTT JA812A B787-881

RJNT 160700Z 15003KT 070V210 9999 FEW030 06/M03 Q1025

20140216_rjnt_22ja825a_2

20140216_rjnt_23ja825a

20140216_rjnt_24ja825a

ANA887 RJTT-RJNT JA825A B787-881

予想通り、本日2度目の飛来。

### whitewing681 さんの動画 ###

### 2/21追加

ANA     /882 can
ANA881/884 JA8287
ANA883/886 JA825A
ANA885/888 JA812A
ANA887/890 JA825A
ANA889/892 JA809A
ANA891       JA602A

ADO120/121 JA300K

AAR128/127 HL7722

CSN613A/614A B-6042

|

« 定点 富山空港 2014/2/12 wed | トップページ | 冬の陣 富山県広域消防防災センター 2014/2/16 sun »

富山空港」カテゴリの記事

コメント

コメントを書く



(ウェブ上には掲載しません)


コメントは記事投稿者が公開するまで表示されません。



トラックバック


この記事へのトラックバック一覧です: おnew 富山空港 2014/2/16 sun:

« 定点 富山空港 2014/2/12 wed | トップページ | 冬の陣 富山県広域消防防災センター 2014/2/16 sun »